sensor_id;sensor_type;location;lat;lon;timestamp;P1;durP1;ratioP1;P2;durP2;ratioP2
35074;SDS011;21260;34.984;32.490;2023-07-13T00:01:16;6.03;;;1.88;;
35074;SDS011;21260;34.984;32.490;2023-07-13T00:03:44;2.20;;;1.55;;
35074;SDS011;21260;34.984;32.490;2023-07-13T00:06:11;3.25;;;1.67;;
35074;SDS011;21260;34.984;32.490;2023-07-13T00:11:18;5.07;;;1.70;;
35074;SDS011;21260;34.984;32.490;2023-07-13T00:13:45;2.60;;;1.60;;
35074;SDS011;21260;34.984;32.490;2023-07-13T00:16:12;3.05;;;1.50;;
35074;SDS011;21260;34.984;32.490;2023-07-13T00:18:40;2.17;;;1.63;;
35074;SDS011;21260;34.984;32.490;2023-07-13T00:21:07;2.30;;;1.60;;
35074;SDS011;21260;34.984;32.490;2023-07-13T00:23:37;2.37;;;1.63;;
35074;SDS011;21260;34.984;32.490;2023-07-13T00:26:08;3.17;;;1.73;;
35074;SDS011;21260;34.984;32.490;2023-07-13T00:28:42;2.20;;;1.50;;
35074;SDS011;21260;34.984;32.490;2023-07-13T00:31:11;2.70;;;1.60;;
35074;SDS011;21260;34.984;32.490;2023-07-13T00:33:41;3.22;;;1.70;;
35074;SDS011;21260;34.984;32.490;2023-07-13T00:36:13;1.65;;;1.42;;
35074;SDS011;21260;34.984;32.490;2023-07-13T00:38:41;3.70;;;1.45;;
35074;SDS011;21260;34.984;32.490;2023-07-13T00:41:12;4.27;;;1.80;;
35074;SDS011;21260;34.984;32.490;2023-07-13T00:43:42;2.47;;;1.60;;
35074;SDS011;21260;34.984;32.490;2023-07-13T00:46:17;3.60;;;1.60;;
35074;SDS011;21260;34.984;32.490;2023-07-13T00:51:48;3.70;;;1.60;;
35074;SDS011;21260;34.984;32.490;2023-07-13T00:54:43;2.07;;;1.60;;
35074;SDS011;21260;34.984;32.490;2023-07-13T00:57:17;2.83;;;1.60;;
35074;SDS011;21260;34.984;32.490;2023-07-13T00:59:54;4.97;;;1.80;;
35074;SDS011;21260;34.984;32.490;2023-07-13T01:02:30;3.67;;;1.50;;
35074;SDS011;21260;34.984;32.490;2023-07-13T01:05:11;5.38;;;1.90;;
35074;SDS011;21260;34.984;32.490;2023-07-13T01:07:51;2.70;;;1.60;;
35074;SDS011;21260;34.984;32.490;2023-07-13T01:12:51;3.23;;;1.73;;
35074;SDS011;21260;34.984;32.490;2023-07-13T01:18:11;2.40;;;1.50;;
35074;SDS011;21260;34.984;32.490;2023-07-13T01:20:50;2.50;;;1.70;;
35074;SDS011;21260;34.984;32.490;2023-07-13T01:23:24;4.30;;;1.80;;
35074;SDS011;21260;34.984;32.490;2023-07-13T01:25:55;3.33;;;1.60;;
35074;SDS011;21260;34.984;32.490;2023-07-13T01:28:25;4.85;;;1.60;;
35074;SDS011;21260;34.984;32.490;2023-07-13T01:30:57;2.75;;;1.60;;
35074;SDS011;21260;34.984;32.490;2023-07-13T01:33:27;3.42;;;1.55;;
35074;SDS011;21260;34.984;32.490;2023-07-13T01:35:55;2.80;;;1.67;;
35074;SDS011;21260;34.984;32.490;2023-07-13T01:38:24;2.28;;;1.42;;
35074;SDS011;21260;34.984;32.490;2023-07-13T01:41:28;2.28;;;1.60;;
35074;SDS011;21260;34.984;32.490;2023-07-13T01:43:54;2.85;;;1.48;;
35074;SDS011;21260;34.984;32.490;2023-07-13T01:46:22;2.85;;;1.60;;
35074;SDS011;21260;34.984;32.490;2023-07-13T01:48:54;2.27;;;1.67;;
35074;SDS011;21260;34.984;32.490;2023-07-13T01:51:25;2.60;;;1.50;;
35074;SDS011;21260;34.984;32.490;2023-07-13T01:53:53;4.65;;;1.80;;
35074;SDS011;21260;34.984;32.490;2023-07-13T01:56:20;2.23;;;1.50;;
35074;SDS011;21260;34.984;32.490;2023-07-13T01:58:53;2.47;;;1.55;;
35074;SDS011;21260;34.984;32.490;2023-07-13T02:01:20;5.23;;;1.70;;
35074;SDS011;21260;34.984;32.490;2023-07-13T02:04:02;4.72;;;1.70;;
35074;SDS011;21260;34.984;32.490;2023-07-13T02:06:37;3.13;;;1.70;;
35074;SDS011;21260;34.984;32.490;2023-07-13T02:09:06;2.93;;;1.60;;
35074;SDS011;21260;34.984;32.490;2023-07-13T02:11:34;3.55;;;1.70;;
35074;SDS011;21260;34.984;32.490;2023-07-13T02:14:23;2.53;;;1.55;;
35074;SDS011;21260;34.984;32.490;2023-07-13T02:16:51;2.92;;;1.70;;
35074;SDS011;21260;34.984;32.490;2023-07-13T02:19:24;4.37;;;1.70;;
35074;SDS011;21260;34.984;32.490;2023-07-13T02:21:51;2.47;;;1.60;;
35074;SDS011;21260;34.984;32.490;2023-07-13T02:24:18;3.20;;;1.80;;
35074;SDS011;21260;34.984;32.490;2023-07-13T02:26:46;2.63;;;1.60;;
35074;SDS011;21260;34.984;32.490;2023-07-13T02:29:15;3.90;;;1.88;;
35074;SDS011;21260;34.984;32.490;2023-07-13T02:31:46;4.10;;;1.50;;
35074;SDS011;21260;34.984;32.490;2023-07-13T02:34:13;3.90;;;1.80;;
35074;SDS011;21260;34.984;32.490;2023-07-13T02:36:42;1.83;;;1.60;;
35074;SDS011;21260;34.984;32.490;2023-07-13T02:39:09;3.40;;;1.75;;
35074;SDS011;21260;34.984;32.490;2023-07-13T02:41:43;2.05;;;1.52;;
35074;SDS011;21260;34.984;32.490;2023-07-13T02:44:11;4.00;;;1.90;;
35074;SDS011;21260;34.984;32.490;2023-07-13T02:49:21;5.60;;;1.60;;
35074;SDS011;21260;34.984;32.490;2023-07-13T02:51:59;2.75;;;1.63;;
35074;SDS011;21260;34.984;32.490;2023-07-13T02:54:28;4.40;;;1.60;;
35074;SDS011;21260;34.984;32.490;2023-07-13T02:56:55;6.35;;;1.60;;
35074;SDS011;21260;34.984;32.490;2023-07-13T02:59:21;2.38;;;1.75;;
35074;SDS011;21260;34.984;32.490;2023-07-13T03:01:50;3.17;;;1.63;;
35074;SDS011;21260;34.984;32.490;2023-07-13T03:04:26;5.72;;;1.85;;
35074;SDS011;21260;34.984;32.490;2023-07-13T03:06:52;3.33;;;1.50;;
35074;SDS011;21260;34.984;32.490;2023-07-13T03:09:25;3.63;;;1.80;;
35074;SDS011;21260;34.984;32.490;2023-07-13T03:12:06;2.53;;;1.67;;
35074;SDS011;21260;34.984;32.490;2023-07-13T03:14:33;6.35;;;1.63;;
35074;SDS011;21260;34.984;32.490;2023-07-13T03:17:00;2.38;;;1.65;;
35074;SDS011;21260;34.984;32.490;2023-07-13T03:19:28;3.38;;;1.70;;
35074;SDS011;21260;34.984;32.490;2023-07-13T03:21:55;4.85;;;1.52;;
35074;SDS011;21260;34.984;32.490;2023-07-13T03:27:05;3.92;;;1.67;;
35074;SDS011;21260;34.984;32.490;2023-07-13T03:29:38;3.95;;;1.70;;
35074;SDS011;21260;34.984;32.490;2023-07-13T03:32:13;3.22;;;1.70;;
35074;SDS011;21260;34.984;32.490;2023-07-13T03:34:41;3.88;;;1.60;;
35074;SDS011;21260;34.984;32.490;2023-07-13T03:37:14;3.10;;;1.73;;
35074;SDS011;21260;34.984;32.490;2023-07-13T03:39:44;3.90;;;1.83;;
35074;SDS011;21260;34.984;32.490;2023-07-13T03:42:13;3.20;;;1.77;;
35074;SDS011;21260;34.984;32.490;2023-07-13T03:44:42;3.53;;;1.60;;
35074;SDS011;21260;34.984;32.490;2023-07-13T03:47:22;2.10;;;1.70;;
35074;SDS011;21260;34.984;32.490;2023-07-13T03:49:54;4.72;;;1.65;;
35074;SDS011;21260;34.984;32.490;2023-07-13T03:52:31;2.50;;;1.73;;
35074;SDS011;21260;34.984;32.490;2023-07-13T03:54:58;2.83;;;1.58;;
35074;SDS011;21260;34.984;32.490;2023-07-13T03:57:24;6.38;;;1.60;;
35074;SDS011;21260;34.984;32.490;2023-07-13T03:59:51;3.15;;;1.73;;
35074;SDS011;21260;34.984;32.490;2023-07-13T04:02:19;2.15;;;1.60;;
35074;SDS011;21260;34.984;32.490;2023-07-13T04:04:46;3.00;;;1.70;;
35074;SDS011;21260;34.984;32.490;2023-07-13T04:07:15;3.85;;;1.63;;
35074;SDS011;21260;34.984;32.490;2023-07-13T04:09:42;3.75;;;1.80;;
35074;SDS011;21260;34.984;32.490;2023-07-13T04:12:11;2.63;;;1.80;;
35074;SDS011;21260;34.984;32.490;2023-07-13T04:14:39;3.65;;;1.80;;
35074;SDS011;21260;34.984;32.490;2023-07-13T04:17:06;2.70;;;1.60;;
35074;SDS011;21260;34.984;32.490;2023-07-13T04:19:32;3.60;;;1.80;;
35074;SDS011;21260;34.984;32.490;2023-07-13T04:22:02;2.80;;;1.88;;
35074;SDS011;21260;34.984;32.490;2023-07-13T04:24:31;4.97;;;1.60;;
35074;SDS011;21260;34.984;32.490;2023-07-13T04:26:58;3.85;;;1.88;;
35074;SDS011;21260;34.984;32.490;2023-07-13T04:29:25;4.20;;;1.70;;
35074;SDS011;21260;34.984;32.490;2023-07-13T04:31:57;1.87;;;1.63;;
35074;SDS011;21260;34.984;32.490;2023-07-13T04:34:36;7.40;;;1.77;;
35074;SDS011;21260;34.984;32.490;2023-07-13T04:37:03;3.70;;;1.90;;
35074;SDS011;21260;34.984;32.490;2023-07-13T04:39:50;4.05;;;1.77;;
35074;SDS011;21260;34.984;32.490;2023-07-13T04:42:22;2.80;;;1.60;;
35074;SDS011;21260;34.984;32.490;2023-07-13T04:44:51;2.20;;;1.60;;
35074;SDS011;21260;34.984;32.490;2023-07-13T04:47:21;2.65;;;1.73;;
35074;SDS011;21260;34.984;32.490;2023-07-13T04:49:50;2.65;;;1.60;;
35074;SDS011;21260;34.984;32.490;2023-07-13T04:52:20;5.55;;;1.75;;
35074;SDS011;21260;34.984;32.490;2023-07-13T04:54:47;3.42;;;1.55;;
35074;SDS011;21260;34.984;32.490;2023-07-13T04:57:20;2.25;;;1.70;;
35074;SDS011;21260;34.984;32.490;2023-07-13T04:59:46;3.42;;;1.90;;
35074;SDS011;21260;34.984;32.490;2023-07-13T05:02:13;3.00;;;1.80;;
35074;SDS011;21260;34.984;32.490;2023-07-13T05:04:48;2.17;;;1.60;;
35074;SDS011;21260;34.984;32.490;2023-07-13T05:07:15;2.28;;;1.70;;
35074;SDS011;21260;34.984;32.490;2023-07-13T05:09:49;3.30;;;1.67;;
35074;SDS011;21260;34.984;32.490;2023-07-13T05:12:18;3.80;;;1.80;;
35074;SDS011;21260;34.984;32.490;2023-07-13T05:14:53;3.10;;;1.67;;
35074;SDS011;21260;34.984;32.490;2023-07-13T05:17:27;2.80;;;1.70;;
35074;SDS011;21260;34.984;32.490;2023-07-13T05:19:53;2.70;;;1.70;;
35074;SDS011;21260;34.984;32.490;2023-07-13T05:22:26;5.53;;;1.70;;
35074;SDS011;21260;34.984;32.490;2023-07-13T05:24:54;5.80;;;1.80;;
35074;SDS011;21260;34.984;32.490;2023-07-13T05:29:54;4.93;;;1.73;;
35074;SDS011;21260;34.984;32.490;2023-07-13T05:32:23;6.75;;;1.77;;
35074;SDS011;21260;34.984;32.490;2023-07-13T05:34:51;4.13;;;1.80;;
35074;SDS011;21260;34.984;32.490;2023-07-13T05:37:23;3.17;;;1.65;;
35074;SDS011;21260;34.984;32.490;2023-07-13T05:39:49;3.97;;;1.80;;
35074;SDS011;21260;34.984;32.490;2023-07-13T05:42:17;4.97;;;1.80;;
35074;SDS011;21260;34.984;32.490;2023-07-13T05:44:46;5.28;;;1.90;;
35074;SDS011;21260;34.984;32.490;2023-07-13T05:47:18;2.55;;;1.70;;
35074;SDS011;21260;34.984;32.490;2023-07-13T05:49:47;2.97;;;1.63;;
35074;SDS011;21260;34.984;32.490;2023-07-13T05:52:22;4.35;;;2.08;;
35074;SDS011;21260;34.984;32.490;2023-07-13T05:54:56;5.47;;;1.80;;
35074;SDS011;21260;34.984;32.490;2023-07-13T05:57:26;7.38;;;1.90;;
35074;SDS011;21260;34.984;32.490;2023-07-13T06:00:16;5.30;;;2.00;;
35074;SDS011;21260;34.984;32.490;2023-07-13T06:02:53;4.18;;;1.70;;
35074;SDS011;21260;34.984;32.490;2023-07-13T06:05:32;4.05;;;1.98;;
35074;SDS011;21260;34.984;32.490;2023-07-13T06:08:03;5.80;;;1.80;;
35074;SDS011;21260;34.984;32.490;2023-07-13T06:10:42;2.87;;;1.70;;
35074;SDS011;21260;34.984;32.490;2023-07-13T06:13:09;5.90;;;1.90;;
35074;SDS011;21260;34.984;32.490;2023-07-13T06:15:49;4.63;;;1.70;;
35074;SDS011;21260;34.984;32.490;2023-07-13T06:18:19;4.40;;;1.95;;
35074;SDS011;21260;34.984;32.490;2023-07-13T06:20:48;4.25;;;1.77;;
35074;SDS011;21260;34.984;32.490;2023-07-13T06:23:18;3.47;;;1.80;;
35074;SDS011;21260;34.984;32.490;2023-07-13T06:26:12;3.70;;;1.92;;
35074;SDS011;21260;34.984;32.490;2023-07-13T06:28:49;3.40;;;1.88;;
35074;SDS011;21260;34.984;32.490;2023-07-13T06:31:21;5.37;;;2.10;;
35074;SDS011;21260;34.984;32.490;2023-07-13T06:34:04;7.00;;;2.10;;
35074;SDS011;21260;34.984;32.490;2023-07-13T06:36:48;2.60;;;1.75;;
35074;SDS011;21260;34.984;32.490;2023-07-13T06:39:18;4.97;;;2.00;;
35074;SDS011;21260;34.984;32.490;2023-07-13T06:41:57;3.08;;;1.90;;
35074;SDS011;21260;34.984;32.490;2023-07-13T06:44:43;2.97;;;1.90;;
35074;SDS011;21260;34.984;32.490;2023-07-13T06:47:14;3.47;;;2.00;;
35074;SDS011;21260;34.984;32.490;2023-07-13T06:49:57;3.47;;;2.00;;
35074;SDS011;21260;34.984;32.490;2023-07-13T06:52:35;5.20;;;2.08;;
35074;SDS011;21260;34.984;32.490;2023-07-13T06:55:10;4.43;;;2.00;;
35074;SDS011;21260;34.984;32.490;2023-07-13T06:57:39;6.15;;;2.10;;
35074;SDS011;21260;34.984;32.490;2023-07-13T07:00:19;5.75;;;2.20;;
35074;SDS011;21260;34.984;32.490;2023-07-13T07:03:00;3.57;;;2.07;;
35074;SDS011;21260;34.984;32.490;2023-07-13T07:05:30;6.65;;;2.00;;
35074;SDS011;21260;34.984;32.490;2023-07-13T07:08:08;4.03;;;1.95;;
35074;SDS011;21260;34.984;32.490;2023-07-13T07:10:45;3.72;;;1.83;;
35074;SDS011;21260;34.984;32.490;2023-07-13T07:13:19;2.67;;;1.88;;
35074;SDS011;21260;34.984;32.490;2023-07-13T07:15:57;5.22;;;2.10;;
35074;SDS011;21260;34.984;32.490;2023-07-13T07:18:40;4.30;;;2.40;;
35074;SDS011;21260;34.984;32.490;2023-07-13T07:21:13;4.73;;;2.20;;
35074;SDS011;21260;34.984;32.490;2023-07-13T07:23:48;6.00;;;2.10;;
35074;SDS011;21260;34.984;32.490;2023-07-13T07:26:19;5.43;;;2.10;;
35074;SDS011;21260;34.984;32.490;2023-07-13T07:29:01;3.63;;;2.03;;
35074;SDS011;21260;34.984;32.490;2023-07-13T07:31:58;6.57;;;2.05;;
35074;SDS011;21260;34.984;32.490;2023-07-13T07:34:29;3.87;;;2.00;;
35074;SDS011;21260;34.984;32.490;2023-07-13T07:37:24;3.78;;;2.30;;
35074;SDS011;21260;34.984;32.490;2023-07-13T07:40:14;4.45;;;1.90;;
35074;SDS011;21260;34.984;32.490;2023-07-13T07:42:47;3.22;;;1.90;;
35074;SDS011;21260;34.984;32.490;2023-07-13T07:45:30;3.33;;;2.10;;
35074;SDS011;21260;34.984;32.490;2023-07-13T07:48:07;4.78;;;2.15;;
35074;SDS011;21260;34.984;32.490;2023-07-13T07:50:58;8.38;;;2.10;;
35074;SDS011;21260;34.984;32.490;2023-07-13T07:53:41;4.05;;;2.10;;
35074;SDS011;21260;34.984;32.490;2023-07-13T07:56:20;5.95;;;2.28;;
35074;SDS011;21260;34.984;32.490;2023-07-13T07:59:09;6.50;;;2.20;;
35074;SDS011;21260;34.984;32.490;2023-07-13T08:01:50;15.27;;;3.20;;
35074;SDS011;21260;34.984;32.490;2023-07-13T08:04:18;35.97;;;5.00;;
35074;SDS011;21260;34.984;32.490;2023-07-13T08:06:53;6.30;;;2.30;;
35074;SDS011;21260;34.984;32.490;2023-07-13T08:09:23;16.67;;;2.75;;
35074;SDS011;21260;34.984;32.490;2023-07-13T08:11:56;3.80;;;2.10;;
35074;SDS011;21260;34.984;32.490;2023-07-13T08:14:31;6.20;;;2.10;;
35074;SDS011;21260;34.984;32.490;2023-07-13T08:17:01;5.77;;;2.40;;
35074;SDS011;21260;34.984;32.490;2023-07-13T08:19:40;4.95;;;2.22;;
35074;SDS011;21260;34.984;32.490;2023-07-13T08:22:22;7.72;;;2.10;;
35074;SDS011;21260;34.984;32.490;2023-07-13T08:24:54;3.65;;;1.98;;
35074;SDS011;21260;34.984;32.490;2023-07-13T08:27:29;5.15;;;2.15;;
35074;SDS011;21260;34.984;32.490;2023-07-13T08:30:04;6.30;;;2.20;;
35074;SDS011;21260;34.984;32.490;2023-07-13T08:32:43;5.45;;;2.50;;
35074;SDS011;21260;34.984;32.490;2023-07-13T08:35:19;251.93;;;18.10;;
35074;SDS011;21260;34.984;32.490;2023-07-13T08:37:50;226.93;;;17.80;;
35074;SDS011;21260;34.984;32.490;2023-07-13T08:40:31;157.98;;;13.23;;
35074;SDS011;21260;34.984;32.490;2023-07-13T08:43:09;6.68;;;2.65;;
35074;SDS011;21260;34.984;32.490;2023-07-13T08:45:49;5.70;;;2.40;;
35074;SDS011;21260;34.984;32.490;2023-07-13T08:48:47;36.70;;;5.20;;
35074;SDS011;21260;34.984;32.490;2023-07-13T08:52:01;5.05;;;2.08;;
35074;SDS011;21260;34.984;32.490;2023-07-13T08:58:14;8.45;;;2.30;;
35074;SDS011;21260;34.984;32.490;2023-07-13T09:07:37;3.55;;;2.35;;
35074;SDS011;21260;34.984;32.490;2023-07-13T09:10:47;5.20;;;2.17;;
35074;SDS011;21260;34.984;32.490;2023-07-13T09:23:15;6.80;;;2.28;;
35074;SDS011;21260;34.984;32.490;2023-07-13T09:25:54;6.38;;;2.40;;
35074;SDS011;21260;34.984;32.490;2023-07-13T09:28:37;6.95;;;2.42;;
35074;SDS011;21260;34.984;32.490;2023-07-13T09:31:33;3.83;;;2.40;;
35074;SDS011;21260;34.984;32.490;2023-07-13T09:34:22;3.85;;;2.30;;
35074;SDS011;21260;34.984;32.490;2023-07-13T09:36:59;9.60;;;2.30;;
35074;SDS011;21260;34.984;32.490;2023-07-13T09:39:42;5.53;;;2.30;;
35074;SDS011;21260;34.984;32.490;2023-07-13T09:42:20;5.40;;;2.30;;
35074;SDS011;21260;34.984;32.490;2023-07-13T09:44:53;4.85;;;2.40;;
35074;SDS011;21260;34.984;32.490;2023-07-13T09:47:30;82.38;;;8.85;;
35074;SDS011;21260;34.984;32.490;2023-07-13T09:50:15;5.07;;;2.55;;
35074;SDS011;21260;34.984;32.490;2023-07-13T09:52:50;4.27;;;2.20;;
35074;SDS011;21260;34.984;32.490;2023-07-13T09:58:48;6.50;;;2.50;;
35074;SDS011;21260;34.984;32.490;2023-07-13T10:01:17;9.57;;;2.72;;
35074;SDS011;21260;34.984;32.490;2023-07-13T10:04:00;5.32;;;2.45;;
35074;SDS011;21260;34.984;32.490;2023-07-13T10:06:39;5.78;;;2.50;;
35074;SDS011;21260;34.984;32.490;2023-07-13T10:09:15;3.47;;;2.30;;
35074;SDS011;21260;34.984;32.490;2023-07-13T10:11:50;6.73;;;2.40;;
35074;SDS011;21260;34.984;32.490;2023-07-13T10:14:18;3.85;;;2.42;;
35074;SDS011;21260;34.984;32.490;2023-07-13T10:16:58;5.25;;;2.58;;
35074;SDS011;21260;34.984;32.490;2023-07-13T10:19:46;4.63;;;2.55;;
35074;SDS011;21260;34.984;32.490;2023-07-13T10:22:27;4.03;;;2.58;;
35074;SDS011;21260;34.984;32.490;2023-07-13T10:25:15;4.38;;;2.58;;
35074;SDS011;21260;34.984;32.490;2023-07-13T10:27:52;4.97;;;2.65;;
35074;SDS011;21260;34.984;32.490;2023-07-13T10:30:42;5.32;;;2.40;;
35074;SDS011;21260;34.984;32.490;2023-07-13T10:33:19;3.40;;;2.60;;
35074;SDS011;21260;34.984;32.490;2023-07-13T10:36:05;3.97;;;2.45;;
35074;SDS011;21260;34.984;32.490;2023-07-13T10:39:21;6.40;;;2.90;;
35074;SDS011;21260;34.984;32.490;2023-07-13T10:42:15;4.68;;;2.90;;
35074;SDS011;21260;34.984;32.490;2023-07-13T10:48:02;8.07;;;2.90;;
35074;SDS011;21260;34.984;32.490;2023-07-13T10:50:45;5.07;;;2.90;;
35074;SDS011;21260;34.984;32.490;2023-07-13T10:53:22;4.10;;;2.78;;
35074;SDS011;21260;34.984;32.490;2023-07-13T10:56:03;9.23;;;2.83;;
35074;SDS011;21260;34.984;32.490;2023-07-13T11:01:58;6.10;;;2.88;;
35074;SDS011;21260;34.984;32.490;2023-07-13T11:04:56;4.93;;;2.90;;
35074;SDS011;21260;34.984;32.490;2023-07-13T11:07:31;7.25;;;2.83;;
35074;SDS011;21260;34.984;32.490;2023-07-13T11:19:42;24.50;;;3.80;;
35074;SDS011;21260;34.984;32.490;2023-07-13T11:22:10;6.85;;;3.30;;
35074;SDS011;21260;34.984;32.490;2023-07-13T11:25:20;6.75;;;2.85;;
35074;SDS011;21260;34.984;32.490;2023-07-13T11:33:25;4.82;;;3.33;;
35074;SDS011;21260;34.984;32.490;2023-07-13T11:36:20;5.47;;;3.20;;
35074;SDS011;21260;34.984;32.490;2023-07-13T11:41:53;5.30;;;3.35;;
35074;SDS011;21260;34.984;32.490;2023-07-13T11:44:29;5.60;;;3.50;;
35074;SDS011;21260;34.984;32.490;2023-07-13T11:47:08;7.90;;;3.50;;
35074;SDS011;21260;34.984;32.490;2023-07-13T11:49:50;6.53;;;3.55;;
35074;SDS011;21260;34.984;32.490;2023-07-13T11:52:31;12.77;;;3.60;;
35074;SDS011;21260;34.984;32.490;2023-07-13T11:55:17;5.82;;;3.85;;
35074;SDS011;21260;34.984;32.490;2023-07-13T11:57:59;5.85;;;3.55;;
35074;SDS011;21260;34.984;32.490;2023-07-13T12:00:29;7.57;;;3.22;;
35074;SDS011;21260;34.984;32.490;2023-07-13T12:03:04;7.80;;;3.40;;
35074;SDS011;21260;34.984;32.490;2023-07-13T12:08:44;6.53;;;3.50;;
35074;SDS011;21260;34.984;32.490;2023-07-13T12:13:48;8.20;;;3.40;;
35074;SDS011;21260;34.984;32.490;2023-07-13T12:16:26;6.25;;;3.67;;
35074;SDS011;21260;34.984;32.490;2023-07-13T12:19:00;6.50;;;3.58;;
35074;SDS011;21260;34.984;32.490;2023-07-13T12:21:30;9.60;;;3.53;;
35074;SDS011;21260;34.984;32.490;2023-07-13T12:24:05;5.95;;;3.55;;
35074;SDS011;21260;34.984;32.490;2023-07-13T12:27:00;6.57;;;3.90;;
35074;SDS011;21260;34.984;32.490;2023-07-13T12:29:32;6.90;;;4.03;;
35074;SDS011;21260;34.984;32.490;2023-07-13T12:38:30;6.30;;;3.40;;
35074;SDS011;21260;34.984;32.490;2023-07-13T12:41:05;6.00;;;3.30;;
35074;SDS011;21260;34.984;32.490;2023-07-13T12:43:47;5.55;;;3.50;;
35074;SDS011;21260;34.984;32.490;2023-07-13T12:46:24;5.25;;;3.58;;
35074;SDS011;21260;34.984;32.490;2023-07-13T12:48:57;3.92;;;3.40;;
35074;SDS011;21260;34.984;32.490;2023-07-13T12:51:49;5.00;;;3.50;;
35074;SDS011;21260;34.984;32.490;2023-07-13T12:54:31;6.95;;;3.63;;
35074;SDS011;21260;34.984;32.490;2023-07-13T12:57:09;4.63;;;3.80;;
35074;SDS011;21260;34.984;32.490;2023-07-13T12:59:47;6.45;;;3.90;;
35074;SDS011;21260;34.984;32.490;2023-07-13T13:05:05;6.45;;;4.28;;
35074;SDS011;21260;34.984;32.490;2023-07-13T13:07:39;6.95;;;3.63;;
35074;SDS011;21260;34.984;32.490;2023-07-13T13:10:11;5.20;;;4.00;;
35074;SDS011;21260;34.984;32.490;2023-07-13T13:12:41;7.90;;;3.97;;
35074;SDS011;21260;34.984;32.490;2023-07-13T13:15:15;4.55;;;3.53;;
35074;SDS011;21260;34.984;32.490;2023-07-13T13:17:50;6.57;;;3.77;;
35074;SDS011;21260;34.984;32.490;2023-07-13T13:20:25;5.80;;;3.58;;
35074;SDS011;21260;34.984;32.490;2023-07-13T13:22:56;6.40;;;4.10;;
35074;SDS011;21260;34.984;32.490;2023-07-13T13:25:25;5.03;;;3.80;;
35074;SDS011;21260;34.984;32.490;2023-07-13T13:27:52;6.30;;;3.83;;
35074;SDS011;21260;34.984;32.490;2023-07-13T13:30:22;8.48;;;4.15;;
35074;SDS011;21260;34.984;32.490;2023-07-13T13:32:51;5.25;;;3.95;;
35074;SDS011;21260;34.984;32.490;2023-07-13T13:35:21;5.78;;;4.30;;
35074;SDS011;21260;34.984;32.490;2023-07-13T13:37:52;6.90;;;4.28;;
35074;SDS011;21260;34.984;32.490;2023-07-13T13:43:22;4.53;;;3.90;;
35074;SDS011;21260;34.984;32.490;2023-07-13T13:46:08;7.27;;;4.27;;
35074;SDS011;21260;34.984;32.490;2023-07-13T13:51:31;6.13;;;3.80;;
35074;SDS011;21260;34.984;32.490;2023-07-13T13:54:01;4.60;;;3.38;;
35074;SDS011;21260;34.984;32.490;2023-07-13T13:56:31;8.02;;;3.90;;
35074;SDS011;21260;34.984;32.490;2023-07-13T13:59:00;5.85;;;3.47;;
35074;SDS011;21260;34.984;32.490;2023-07-13T14:01:29;6.03;;;3.50;;
35074;SDS011;21260;34.984;32.490;2023-07-13T14:04:00;7.33;;;3.90;;
35074;SDS011;21260;34.984;32.490;2023-07-13T14:06:30;6.07;;;3.38;;
35074;SDS011;21260;34.984;32.490;2023-07-13T14:09:01;5.63;;;3.70;;
35074;SDS011;21260;34.984;32.490;2023-07-13T14:11:40;6.30;;;3.67;;
35074;SDS011;21260;34.984;32.490;2023-07-13T14:14:23;4.53;;;3.43;;
35074;SDS011;21260;34.984;32.490;2023-07-13T14:19:31;6.60;;;3.67;;
35074;SDS011;21260;34.984;32.490;2023-07-13T14:22:06;6.35;;;3.92;;
35074;SDS011;21260;34.984;32.490;2023-07-13T14:24:37;4.53;;;3.60;;
35074;SDS011;21260;34.984;32.490;2023-07-13T14:27:26;5.10;;;3.88;;
35074;SDS011;21260;34.984;32.490;2023-07-13T14:29:58;7.60;;;3.83;;
35074;SDS011;21260;34.984;32.490;2023-07-13T14:32:30;5.93;;;3.83;;
35074;SDS011;21260;34.984;32.490;2023-07-13T14:34:59;8.07;;;3.90;;
35074;SDS011;21260;34.984;32.490;2023-07-13T14:37:41;8.20;;;3.63;;
35074;SDS011;21260;34.984;32.490;2023-07-13T14:40:28;4.10;;;3.60;;
35074;SDS011;21260;34.984;32.490;2023-07-13T14:42:57;7.07;;;3.88;;
35074;SDS011;21260;34.984;32.490;2023-07-13T14:45:31;4.40;;;3.55;;
35074;SDS011;21260;34.984;32.490;2023-07-13T14:47:58;5.55;;;3.55;;
35074;SDS011;21260;34.984;32.490;2023-07-13T14:50:30;6.40;;;3.63;;
35074;SDS011;21260;34.984;32.490;2023-07-13T14:53:04;5.90;;;3.83;;
35074;SDS011;21260;34.984;32.490;2023-07-13T14:55:36;6.28;;;3.90;;
35074;SDS011;21260;34.984;32.490;2023-07-13T14:58:10;5.05;;;3.80;;
35074;SDS011;21260;34.984;32.490;2023-07-13T15:00:47;8.43;;;4.00;;
35074;SDS011;21260;34.984;32.490;2023-07-13T15:03:24;5.43;;;4.03;;
35074;SDS011;21260;34.984;32.490;2023-07-13T15:05:52;5.90;;;3.90;;
35074;SDS011;21260;34.984;32.490;2023-07-13T15:08:19;9.15;;;4.40;;
35074;SDS011;21260;34.984;32.490;2023-07-13T15:10:51;8.05;;;4.13;;
35074;SDS011;21260;34.984;32.490;2023-07-13T15:13:20;8.23;;;3.92;;
35074;SDS011;21260;34.984;32.490;2023-07-13T15:15:50;5.72;;;3.70;;
35074;SDS011;21260;34.984;32.490;2023-07-13T15:18:21;4.72;;;3.90;;
35074;SDS011;21260;34.984;32.490;2023-07-13T15:20:53;6.28;;;3.60;;
35074;SDS011;21260;34.984;32.490;2023-07-13T15:23:33;5.60;;;3.78;;
35074;SDS011;21260;34.984;32.490;2023-07-13T15:28:56;6.25;;;3.60;;
35074;SDS011;21260;34.984;32.490;2023-07-13T15:31:25;5.95;;;3.60;;
35074;SDS011;21260;34.984;32.490;2023-07-13T15:33:57;15.68;;;3.92;;
35074;SDS011;21260;34.984;32.490;2023-07-13T15:36:26;41.17;;;5.60;;
35074;SDS011;21260;34.984;32.490;2023-07-13T15:38:55;6.00;;;3.67;;
35074;SDS011;21260;34.984;32.490;2023-07-13T15:41:27;7.00;;;4.00;;
35074;SDS011;21260;34.984;32.490;2023-07-13T15:47:00;5.72;;;3.95;;
35074;SDS011;21260;34.984;32.490;2023-07-13T15:52:28;5.05;;;3.85;;
35074;SDS011;21260;34.984;32.490;2023-07-13T15:54:59;5.65;;;4.00;;
35074;SDS011;21260;34.984;32.490;2023-07-13T16:00:12;6.13;;;4.03;;
35074;SDS011;21260;34.984;32.490;2023-07-13T16:02:49;5.03;;;3.50;;
35074;SDS011;21260;34.984;32.490;2023-07-13T16:05:25;6.75;;;3.80;;
35074;SDS011;21260;34.984;32.490;2023-07-13T16:07:54;5.13;;;3.78;;
35074;SDS011;21260;34.984;32.490;2023-07-13T16:10:32;7.03;;;3.88;;
35074;SDS011;21260;34.984;32.490;2023-07-13T16:15:46;6.60;;;3.85;;
35074;SDS011;21260;34.984;32.490;2023-07-13T16:18:16;7.35;;;3.90;;
35074;SDS011;21260;34.984;32.490;2023-07-13T16:20:46;7.03;;;3.90;;
35074;SDS011;21260;34.984;32.490;2023-07-13T16:23:18;6.90;;;3.63;;
35074;SDS011;21260;34.984;32.490;2023-07-13T16:25:47;7.07;;;3.70;;
35074;SDS011;21260;34.984;32.490;2023-07-13T16:28:20;11.23;;;4.18;;
35074;SDS011;21260;34.984;32.490;2023-07-13T16:30:57;4.20;;;3.50;;
35074;SDS011;21260;34.984;32.490;2023-07-13T16:33:24;7.15;;;3.65;;
35074;SDS011;21260;34.984;32.490;2023-07-13T16:35:54;23.17;;;4.80;;
35074;SDS011;21260;34.984;32.490;2023-07-13T16:38:24;8.57;;;3.67;;
35074;SDS011;21260;34.984;32.490;2023-07-13T16:40:54;8.23;;;4.30;;
35074;SDS011;21260;34.984;32.490;2023-07-13T16:43:28;13.27;;;4.15;;
35074;SDS011;21260;34.984;32.490;2023-07-13T16:46:03;11.45;;;3.78;;
35074;SDS011;21260;34.984;32.490;2023-07-13T16:48:45;22.25;;;4.70;;
35074;SDS011;21260;34.984;32.490;2023-07-13T16:51:24;15.23;;;3.70;;
35074;SDS011;21260;34.984;32.490;2023-07-13T16:53:57;23.20;;;4.80;;
35074;SDS011;21260;34.984;32.490;2023-07-13T16:56:31;8.93;;;4.15;;
35074;SDS011;21260;34.984;32.490;2023-07-13T16:59:27;15.30;;;4.07;;
35074;SDS011;21260;34.984;32.490;2023-07-13T17:02:04;9.20;;;3.92;;